Time;durP1;ratioP1;P1;durP2;ratioP2;P2;SDS_P1;SDS_P2;PMS_P1;PMS_P2;Temp;Humidity;BMP_temperature;BMP_pressure;BME280_temperature;BME280_humidity;BME280_pressure;Samples;Min_cycle;Max_cycle;Signal;HPM_P1;HPM_P2
2022/08/14 00:00:04;;;;;;;7.20;6.70;;;21.90;99.90;;;;;;5089842;28;20458;-45
2022/08/14 00:02:30;;;;;;;7.23;6.60;;;21.90;99.90;;;;;;5087240;28;20417;-48
2022/08/14 00:04:56;;;;;;;7.47;6.87;;;21.80;99.90;;;;;;5089809;28;20434;-45
2022/08/14 00:07:21;;;;;;;7.23;6.43;;;21.70;99.90;;;;;;5089062;28;20270;-51
2022/08/14 00:09:47;;;;;;;8.60;7.40;;;21.60;99.90;;;;;;5089813;28;20539;-44
2022/08/14 00:12:12;;;;;;;7.40;6.60;;;21.50;99.90;;;;;;5089524;28;20192;-46
2022/08/14 00:14:38;;;;;;;7.10;6.50;;;21.50;99.90;;;;;;5088517;28;20185;-46
2022/08/14 00:17:05;;;;;;;7.57;6.97;;;21.50;99.90;;;;;;5086958;28;20238;-47
2022/08/14 00:19:31;;;;;;;7.70;7.10;;;21.70;99.90;;;;;;5087632;28;20215;-44
2022/08/14 00:21:56;;;;;;;8.30;7.60;;;21.90;99.90;;;;;;5087799;28;20414;-44
2022/08/14 00:24:22;;;;;;;8.50;7.70;;;22.10;99.90;;;;;;5088199;28;20199;-44
2022/08/14 00:26:48;;;;;;;9.00;8.23;;;22.20;99.40;;;;;;5087301;28;20840;-44
2022/08/14 00:29:14;;;;;;;8.30;7.60;;;22.30;99.20;;;;;;5087897;28;20262;-45
2022/08/14 00:31:39;;;;;;;8.30;7.53;;;22.40;99.00;;;;;;5087653;28;20188;-45
2022/08/14 00:34:05;;;;;;;8.17;7.50;;;22.40;98.70;;;;;;5087937;28;20182;-44
2022/08/14 00:36:31;;;;;;;7.70;7.10;;;22.50;98.50;;;;;;5087744;28;20192;-47
2022/08/14 00:38:57;;;;;;;8.00;7.30;;;22.60;98.30;;;;;;5086506;28;20208;-44
2022/08/14 00:41:28;;;;;;;8.07;7.47;;;22.60;98.40;;;;;;5087984;28;20442;-44
2022/08/14 00:43:54;;;;;;;8.50;7.77;;;22.60;98.30;;;;;;5087612;28;20414;-44
2022/08/14 00:46:19;;;;;;;8.23;7.63;;;22.60;98.60;;;;;;5084558;28;20636;-44
2022/08/14 00:48:47;;;;;;;8.00;7.30;;;22.60;98.90;;;;;;5086907;28;20180;-44
2022/08/14 00:51:12;;;;;;;8.40;7.70;;;22.50;98.90;;;;;;5089358;28;20863;-44
2022/08/14 00:53:39;;;;;;;8.00;7.30;;;22.50;99.00;;;;;;5091940;28;20501;-44
2022/08/14 00:56:06;;;;;;;8.20;7.60;;;22.50;99.30;;;;;;5092368;28;20183;-47
2022/08/14 00:58:33;;;;;;;7.60;7.10;;;22.40;99.50;;;;;;5089684;28;21011;-44
2022/08/14 01:01:03;;;;;;;8.33;7.53;;;22.40;99.50;;;;;;5090671;28;20437;-45
2022/08/14 01:03:29;;;;;;;8.23;7.60;;;22.40;99.50;;;;;;5091741;28;20921;-44
2022/08/14 01:05:56;;;;;;;9.67;8.83;;;22.40;99.90;;;;;;5091601;28;20583;-45
2022/08/14 01:08:24;;;;;;;8.50;7.80;;;22.40;99.70;;;;;;5088553;28;20430;-47
2022/08/14 01:10:50;;;;;;;9.03;8.23;;;22.40;99.90;;;;;;5091736;28;20504;-47
2022/08/14 01:13:25;;;;;;;9.00;8.13;;;22.30;99.90;;;;;;5091150;28;20459;-45
2022/08/14 01:15:54;;;;;;;9.40;8.40;;;22.40;99.90;;;;;;5091851;28;20176;-44
2022/08/14 01:21:08;;;;;;;8.33;7.60;;;22.50;99.60;;;;;;5090353;28;20418;-44
2022/08/14 01:23:52;;;;;;;9.20;8.50;;;22.50;99.20;;;;;;5091236;28;20481;-46
2022/08/14 01:26:22;;;;;;;8.20;7.43;;;22.60;99.10;;;;;;5091475;28;20558;-44
2022/08/14 01:28:54;;;;;;;9.33;8.43;;;22.60;99.10;;;;;;5090895;28;20526;-44
2022/08/14 01:31:22;;;;;;;14.00;9.40;;;22.60;99.40;;;;;;5091157;28;20948;-44
2022/08/14 01:33:50;;;;;;;8.80;8.10;;;22.60;99.60;;;;;;5091222;28;20414;-46
2022/08/14 01:36:19;;;;;;;8.67;7.83;;;22.50;99.80;;;;;;5090845;28;20414;-44
2022/08/14 01:38:47;;;;;;;8.67;8.07;;;22.40;99.90;;;;;;5090764;28;20883;-45
2022/08/14 01:41:20;;;;;;;9.27;8.47;;;22.30;99.90;;;;;;5091128;28;20428;-45
2022/08/14 01:43:49;;;;;;;9.80;9.00;;;22.30;99.90;;;;;;5091080;28;20422;-45
2022/08/14 01:46:22;;;;;;;9.10;8.30;;;22.10;99.90;;;;;;5091325;28;20417;-44
2022/08/14 01:48:50;;;;;;;9.87;9.07;;;22.00;99.90;;;;;;5089942;28;20426;-44
2022/08/14 01:51:21;;;;;;;9.13;8.33;;;21.90;99.90;;;;;;5091451;28;20444;-44
2022/08/14 01:53:56;;;;;;;9.40;8.70;;;21.70;99.90;;;;;;5090889;28;20499;-45
2022/08/14 01:56:37;;;;;;;9.73;8.00;;;21.70;99.90;;;;;;5083207;28;20414;-45
2022/08/14 01:59:08;;;;;;;10.43;9.60;;;21.60;99.90;;;;;;5090033;28;20988;-44
2022/08/14 02:01:36;;;;;;;9.70;8.90;;;21.50;99.90;;;;;;5091069;28;20418;-45
2022/08/14 02:04:04;;;;;;;9.90;9.00;;;21.40;99.90;;;;;;5090476;28;20421;-44
2022/08/14 02:06:29;;;;;;;9.60;8.80;;;21.30;99.90;;;;;;5089591;28;20458;-52
2022/08/14 02:08:57;;;;;;;9.57;8.77;;;21.20;99.90;;;;;;5089907;28;20884;-48
2022/08/14 02:11:24;;;;;;;9.73;8.87;;;21.10;99.90;;;;;;5090671;28;20267;-45
2022/08/14 02:13:57;;;;;;;9.67;8.77;;;21.00;99.90;;;;;;5090456;28;20451;-44
2022/08/14 02:16:25;;;;;;;9.83;9.03;;;21.00;99.90;;;;;;5090613;28;20585;-45
2022/08/14 02:18:53;;;;;;;9.93;9.13;;;20.90;99.90;;;;;;5089818;28;20994;-44
2022/08/14 02:21:19;;;;;;;9.90;8.90;;;21.00;99.90;;;;;;5088759;28;20521;-44
2022/08/14 02:23:47;;;;;;;11.53;10.47;;;21.00;99.90;;;;;;5090262;28;20511;-49
2022/08/14 02:26:19;;;;;;;11.27;9.90;;;21.20;99.90;;;;;;5089669;28;20426;-47
2022/08/14 02:28:45;;;;;;;10.47;9.60;;;21.30;99.90;;;;;;5089549;28;20426;-44
2022/08/14 02:31:13;;;;;;;11.53;10.53;;;21.40;99.90;;;;;;5089958;28;20430;-45
2022/08/14 02:33:40;;;;;;;9.67;8.83;;;21.50;99.90;;;;;;5090090;28;20422;-47
2022/08/14 02:36:07;;;;;;;10.30;9.53;;;21.60;99.90;;;;;;5088690;28;20423;-44
2022/08/14 02:38:33;;;;;;;9.80;8.90;;;21.70;99.90;;;;;;5089230;28;20700;-45
2022/08/14 02:40:59;;;;;;;10.43;9.57;;;21.60;99.90;;;;;;5089806;28;20939;-46
2022/08/14 02:43:29;;;;;;;11.00;10.10;;;21.50;99.90;;;;;;5089986;28;20407;-45
2022/08/14 02:45:55;;;;;;;10.93;9.83;;;21.30;99.90;;;;;;5088481;28;20419;-44
2022/08/14 02:48:21;;;;;;;10.80;9.80;;;21.20;99.90;;;;;;5089092;28;20933;-44
2022/08/14 02:50:47;;;;;;;10.73;9.80;;;21.10;99.90;;;;;;5089874;28;20419;-45
2022/08/14 02:53:13;;;;;;;10.93;9.93;;;21.00;99.90;;;;;;5089313;28;20195;-44
2022/08/14 02:55:40;;;;;;;10.50;9.67;;;21.00;99.90;;;;;;5090208;28;20758;-44
2022/08/14 02:58:06;;;;;;;10.10;9.30;;;20.90;99.90;;;;;;5088920;28;20426;-50
2022/08/14 03:00:34;;;;;;;10.30;9.50;;;21.00;99.90;;;;;;5089635;28;20458;-44
2022/08/14 03:03:01;;;;;;;11.67;10.57;;;21.00;99.90;;;;;;5089408;28;20475;-45
2022/08/14 03:05:29;;;;;;;10.50;9.60;;;21.00;99.90;;;;;;5089368;28;20430;-47
2022/08/14 03:08:07;;;;;;;10.63;9.73;;;21.00;99.90;;;;;;5088938;28;20514;-44
2022/08/14 03:10:33;;;;;;;9.90;9.00;;;21.10;99.90;;;;;;5089587;28;20414;-47
2022/08/14 03:13:02;;;;;;;10.43;9.43;;;21.00;99.90;;;;;;5088777;28;20958;-45
2022/08/14 03:15:28;;;;;;;10.27;9.40;;;21.00;99.90;;;;;;5089619;28;20437;-46
2022/08/14 03:17:54;;;;;;;9.77;8.97;;;21.00;99.90;;;;;;5088600;28;20415;-46
2022/08/14 03:20:20;;;;;;;10.60;9.63;;;20.80;99.90;;;;;;5087487;28;20215;-46
2022/08/14 03:22:45;;;;;;;11.30;10.40;;;20.70;99.90;;;;;;5089364;28;20589;-45
2022/08/14 03:25:12;;;;;;;10.40;9.60;;;20.70;99.90;;;;;;5089369;28;20271;-45
2022/08/14 03:27:38;;;;;;;10.40;9.50;;;20.60;99.90;;;;;;5088581;28;20180;-44
2022/08/14 03:30:05;;;;;;;11.50;10.50;;;20.50;99.90;;;;;;5088958;28;20453;-46
2022/08/14 03:32:32;;;;;;;10.43;9.60;;;20.40;99.90;;;;;;5089107;28;20439;-45
2022/08/14 03:34:58;;;;;;;11.80;10.33;;;20.30;99.90;;;;;;5088548;28;20430;-47
2022/08/14 03:37:25;;;;;;;11.67;10.77;;;20.20;99.90;;;;;;5088214;28;20434;-45
2022/08/14 03:39:54;;;;;;;10.73;9.73;;;20.10;99.90;;;;;;5088698;28;20459;-46
2022/08/14 03:42:23;;;;;;;10.80;9.90;;;20.00;99.90;;;;;;5087855;28;20417;-45
2022/08/14 03:44:50;;;;;;;10.40;9.60;;;19.90;99.90;;;;;;5076331;28;20422;-44
2022/08/14 03:47:16;;;;;;;11.27;10.27;;;19.90;99.90;;;;;;5088363;28;20422;-44
2022/08/14 03:49:45;;;;;;;10.30;9.40;;;19.80;99.90;;;;;;5088561;28;20434;-48
2022/08/14 03:52:12;;;;;;;10.63;9.73;;;19.80;99.90;;;;;;5085691;28;20441;-46
2022/08/14 03:54:38;;;;;;;11.63;10.53;;;19.70;99.90;;;;;;5088669;28;20453;-46
2022/08/14 03:57:04;;;;;;;11.77;10.77;;;19.70;99.90;;;;;;5087821;28;20882;-45
2022/08/14 03:59:33;;;;;;;11.17;10.13;;;19.70;99.90;;;;;;5087314;28;20581;-44
2022/08/14 04:02:02;;;;;;;11.33;10.43;;;19.60;99.90;;;;;;5088053;28;20578;-45
2022/08/14 04:04:29;;;;;;;11.90;10.60;;;19.60;99.90;;;;;;5086669;28;20523;-45
2022/08/14 04:06:55;;;;;;;10.70;9.77;;;19.50;99.90;;;;;;5084566;28;20467;-46
2022/08/14 04:09:21;;;;;;;10.60;9.80;;;19.50;99.90;;;;;;5088062;28;20415;-44
2022/08/14 04:11:46;;;;;;;11.20;10.40;;;19.40;99.90;;;;;;5086723;28;20193;-47
2022/08/14 04:14:13;;;;;;;12.43;11.13;;;19.40;99.90;;;;;;5088465;28;20652;-45
2022/08/14 04:16:42;;;;;;;11.87;10.93;;;19.30;99.90;;;;;;5086997;28;20429;-45
2022/08/14 04:19:08;;;;;;;10.77;9.90;;;19.30;99.90;;;;;;5087665;28;20212;-49
2022/08/14 04:21:34;;;;;;;11.53;10.50;;;19.30;99.90;;;;;;5087505;28;20509;-44
2022/08/14 04:24:00;;;;;;;11.47;10.40;;;19.30;99.90;;;;;;5087131;28;20513;-44
2022/08/14 04:26:28;;;;;;;12.00;10.90;;;19.30;99.90;;;;;;5087197;28;20234;-44
2022/08/14 04:28:55;;;;;;;11.23;10.33;;;19.30;99.90;;;;;;5086776;28;20933;-45
2022/08/14 04:31:22;;;;;;;11.30;10.33;;;19.30;99.90;;;;;;5087110;28;20415;-47
2022/08/14 04:33:48;;;;;;;11.87;10.87;;;19.30;99.90;;;;;;5087346;28;20791;-46
2022/08/14 04:36:14;;;;;;;11.03;10.03;;;19.30;99.90;;;;;;5087891;28;20494;-44
2022/08/14 04:44:08;;;;;;;13.43;12.23;;;19.40;99.90;;;;;;5086373;28;20529;-45
2022/08/14 04:46:35;;;;;;;12.20;11.20;;;19.50;99.90;;;;;;5069327;28;20624;-44
2022/08/14 04:49:05;;;;;;;12.37;11.17;;;19.50;99.90;;;;;;5087622;28;20196;-44
2022/08/14 04:51:31;;;;;;;12.10;10.97;;;19.60;99.90;;;;;;5088379;28;20437;-44
2022/08/14 04:53:59;;;;;;;12.33;11.33;;;19.60;99.90;;;;;;5087892;28;20476;-46
2022/08/14 04:56:26;;;;;;;15.53;10.60;;;19.70;99.90;;;;;;5087527;28;20434;-44
2022/08/14 04:58:56;;;;;;;12.57;10.37;;;19.70;99.90;;;;;;5087117;28;20479;-45
2022/08/14 05:01:24;;;;;;;11.43;10.53;;;19.70;99.90;;;;;;5087689;28;20638;-45
2022/08/14 05:03:49;;;;;;;11.17;10.33;;;19.80;99.90;;;;;;5087723;28;20455;-44
2022/08/14 05:06:15;;;;;;;11.80;10.80;;;19.80;99.90;;;;;;5087625;28;20434;-45
2022/08/14 05:08:42;;;;;;;12.70;10.80;;;19.90;99.90;;;;;;5086675;28;20184;-47
2022/08/14 05:11:09;;;;;;;12.90;11.90;;;19.90;99.90;;;;;;5087789;28;20188;-45
2022/08/14 05:13:38;;;;;;;11.60;10.60;;;20.00;99.90;;;;;;5087567;28;20426;-44
2022/08/14 05:16:06;;;;;;;12.17;11.13;;;20.00;99.90;;;;;;5087638;28;20517;-44
2022/08/14 05:18:35;;;;;;;12.47;11.47;;;20.20;99.90;;;;;;5086893;28;20570;-44
2022/08/14 05:21:03;;;;;;;12.30;11.00;;;20.30;99.90;;;;;;5084965;28;20710;-43
2022/08/14 05:23:31;;;;;;;12.03;10.97;;;20.40;99.90;;;;;;5087004;28;20988;-45
2022/08/14 05:26:11;;;;;;;11.70;10.70;;;20.40;99.90;;;;;;5087628;28;20411;-44
2022/08/14 05:28:43;;;;;;;11.03;10.13;;;20.40;99.90;;;;;;5086620;28;20450;-46
2022/08/14 05:31:10;;;;;;;11.63;10.63;;;20.50;99.90;;;;;;5087531;28;20430;-44
2022/08/14 05:33:36;;;;;;;12.30;11.20;;;20.60;99.90;;;;;;5087156;28;20847;-46
2022/08/14 05:36:09;;;;;;;12.60;11.30;;;20.70;99.90;;;;;;5088006;28;20461;-44
2022/08/14 05:38:41;;;;;;;13.13;11.93;;;20.70;99.90;;;;;;5090744;28;20490;-45
2022/08/14 05:41:18;;;;;;;12.93;11.83;;;20.60;99.90;;;;;;5091402;28;20445;-44
2022/08/14 05:43:46;;;;;;;12.20;11.10;;;20.60;99.90;;;;;;5090920;28;20418;-44
2022/08/14 05:46:14;;;;;;;12.80;11.63;;;20.70;99.90;;;;;;5090772;28;20414;-44
2022/08/14 05:48:40;;;;;;;12.97;11.77;;;20.70;99.90;;;;;;5089911;28;20421;-45
2022/08/14 05:51:06;;;;;;;13.57;12.20;;;20.80;99.90;;;;;;5091116;28;20422;-45
2022/08/14 05:53:31;;;;;;;12.80;11.70;;;21.00;99.90;;;;;;5090943;28;20191;-47
2022/08/14 05:56:00;;;;;;;12.50;11.40;;;21.10;99.90;;;;;;5090742;28;20425;-46
2022/08/14 05:58:26;;;;;;;13.80;12.50;;;21.30;99.90;;;;;;5088959;28;20846;-44
2022/08/14 06:00:52;;;;;;;12.97;11.77;;;21.60;99.90;;;;;;5090255;28;20423;-44
2022/08/14 06:03:21;;;;;;;12.43;11.37;;;21.80;99.90;;;;;;5090674;28;20211;-44
2022/08/14 06:05:49;;;;;;;11.93;10.90;;;22.10;99.90;;;;;;5090097;28;20442;-44
2022/08/14 06:08:22;;;;;;;13.87;12.57;;;22.40;99.90;;;;;;5089811;28;20411;-44
2022/08/14 06:10:52;;;;;;;11.77;10.83;;;22.60;99.90;;;;;;5089450;28;20415;-44
2022/08/14 06:13:18;;;;;;;12.87;11.77;;;22.90;99.90;;;;;;5088334;28;20785;-45
2022/08/14 06:15:45;;;;;;;12.23;11.13;;;23.00;99.90;;;;;;5090470;28;20855;-44
2022/08/14 06:18:11;;;;;;;12.60;11.50;;;23.10;99.90;;;;;;5089552;28;20982;-45
2022/08/14 06:20:37;;;;;;;11.67;10.70;;;23.40;99.90;;;;;;5084956;28;20457;-45
2022/08/14 06:23:04;;;;;;;12.10;11.10;;;23.50;99.90;;;;;;5088750;28;20176;-45
2022/08/14 06:25:30;;;;;;;13.47;12.30;;;23.70;99.90;;;;;;5090377;28;20423;-45
2022/08/14 06:27:56;;;;;;;14.60;11.43;;;23.70;99.90;;;;;;5089109;28;20419;-48
2022/08/14 06:30:25;;;;;;;11.90;10.83;;;23.80;99.90;;;;;;5087842;28;20435;-46
2022/08/14 06:32:51;;;;;;;12.13;10.90;;;24.00;99.90;;;;;;5086694;28;20444;-48
2022/08/14 06:35:19;;;;;;;12.70;11.60;;;24.20;99.90;;;;;;5091566;28;20423;-46
2022/08/14 06:37:53;;;;;;;13.53;11.80;;;24.20;99.90;;;;;;5089504;28;20433;-44
2022/08/14 06:40:26;;;;;;;12.30;11.30;;;24.30;99.90;;;;;;5089843;28;20453;-44
2022/08/14 06:42:52;;;;;;;12.90;11.83;;;24.40;99.90;;;;;;5090876;28;20418;-45
2022/08/14 06:45:18;;;;;;;12.10;11.00;;;24.40;99.90;;;;;;5096295;28;20996;-47
2022/08/14 06:47:45;;;;;;;12.97;11.67;;;24.50;99.90;;;;;;5088174;28;20501;-46
2022/08/14 06:50:21;;;;;;;12.37;11.07;;;24.50;99.90;;;;;;5089674;28;20196;-46
2022/08/14 06:52:47;;;;;;;13.10;11.93;;;24.60;99.90;;;;;;5090224;28;20422;-47
2022/08/14 06:55:17;;;;;;;12.53;11.43;;;24.70;99.90;;;;;;5089596;28;20752;-47
2022/08/14 06:57:50;;;;;;;13.30;12.20;;;24.80;99.90;;;;;;5089127;28;20442;-44
2022/08/14 07:00:24;;;;;;;14.33;12.37;;;25.00;99.90;;;;;;5089510;28;20469;-44
2022/08/14 07:05:45;;;;;;;13.63;12.30;;;25.20;99.90;;;;;;5089251;28;20441;-43
2022/08/14 07:08:28;;;;;;;13.40;12.20;;;25.30;99.90;;;;;;5088897;28;20460;-45
2022/08/14 07:10:57;;;;;;;12.60;11.57;;;25.50;99.90;;;;;;5089489;28;20707;-44
2022/08/14 07:13:25;;;;;;;12.47;11.47;;;25.50;99.90;;;;;;5089160;28;21102;-47
2022/08/14 07:15:52;;;;;;;12.77;11.67;;;25.60;99.90;;;;;;5088480;28;20429;-44
2022/08/14 07:18:20;;;;;;;13.33;12.23;;;25.60;99.90;;;;;;5088635;28;20413;-46
2022/08/14 07:20:46;;;;;;;12.03;11.10;;;25.50;99.90;;;;;;5087777;28;20856;-45
2022/08/14 07:23:12;;;;;;;12.93;11.93;;;25.50;99.90;;;;;;5088892;28;20590;-45
2022/08/14 07:25:40;;;;;;;13.20;12.00;;;25.40;99.90;;;;;;5089310;28;20233;-44
2022/08/14 07:28:11;;;;;;;12.90;11.70;;;25.40;99.90;;;;;;5086768;28;20188;-47
2022/08/14 07:30:38;;;;;;;12.57;11.57;;;25.40;99.90;;;;;;5087635;28;20967;-44
2022/08/14 07:33:04;;;;;;;11.70;10.73;;;25.50;99.90;;;;;;5081437;28;20427;-46
2022/08/14 07:35:31;;;;;;;12.50;11.50;;;25.50;99.90;;;;;;5088484;28;20445;-47
2022/08/14 07:37:56;;;;;;;13.63;12.43;;;25.50;99.90;;;;;;5088369;28;20432;-46
2022/08/14 07:40:22;;;;;;;12.03;11.13;;;25.50;99.90;;;;;;5088523;28;20474;-45
2022/08/14 07:42:48;;;;;;;12.87;11.80;;;25.50;99.90;;;;;;5088088;28;20212;-45
2022/08/14 07:45:13;;;;;;;12.10;11.10;;;25.50;99.90;;;;;;5088547;28;20184;-44
2022/08/14 07:47:41;;;;;;;11.70;10.73;;;25.50;99.90;;;;;;5078389;28;20355;-44
2022/08/14 07:50:15;;;;;;;11.50;10.60;;;25.40;99.90;;;;;;5083169;28;20608;-45
2022/08/14 07:52:48;;;;;;;12.40;11.30;;;25.40;99.90;;;;;;5088471;28;20461;-44
2022/08/14 07:55:16;;;;;;;12.43;11.40;;;25.40;99.90;;;;;;5086094;28;20862;-47
2022/08/14 07:57:43;;;;;;;11.80;10.70;;;25.50;99.90;;;;;;5085573;28;20979;-44
2022/08/14 08:00:21;;;;;;;12.00;11.00;;;25.50;99.90;;;;;;5088097;27;20482;-45
2022/08/14 08:02:48;;;;;;;12.10;11.20;;;25.50;99.90;;;;;;5092825;28;20975;-46
2022/08/14 08:05:15;;;;;;;12.00;11.10;;;25.50;99.90;;;;;;5086097;27;20716;-44
2022/08/14 08:07:44;;;;;;;12.63;11.63;;;25.50;99.90;;;;;;5092923;28;20436;-46
2022/08/14 08:10:31;;;;;;;13.00;11.90;;;25.50;99.90;;;;;;5087590;28;20450;-45
2022/08/14 08:13:04;;;;;;;11.10;10.30;;;25.40;99.90;;;;;;5079211;28;20443;-45
2022/08/14 08:15:35;;;;;;;11.77;10.90;;;25.40;99.90;;;;;;5089445;28;20457;-44
2022/08/14 08:18:03;;;;;;;10.70;9.90;;;25.50;99.90;;;;;;5081658;28;20438;-44
2022/08/14 08:20:32;;;;;;;11.70;10.80;;;25.50;99.90;;;;;;5085463;28;20473;-46
2022/08/14 08:22:58;;;;;;;11.93;11.03;;;25.60;99.80;;;;;;5087713;28;20870;-45
2022/08/14 08:25:26;;;;;;;12.00;10.90;;;25.50;99.80;;;;;;5086944;28;20457;-45
2022/08/14 08:28:13;;;;;;;12.43;11.47;;;25.50;99.90;;;;;;5084390;28;20439;-45
2022/08/14 08:30:55;;;;;;;11.17;10.30;;;25.50;99.90;;;;;;5087147;28;20442;-44
2022/08/14 08:33:23;;;;;;;12.43;11.43;;;25.60;99.90;;;;;;5087690;27;20506;-45
2022/08/14 08:35:49;;;;;;;11.87;10.87;;;25.60;99.90;;;;;;5086818;28;21058;-47
2022/08/14 08:38:18;;;;;;;11.37;10.40;;;25.60;99.90;;;;;;5086798;28;20475;-47
2022/08/14 08:40:48;;;;;;;11.87;10.83;;;25.70;99.60;;;;;;5085001;28;20543;-44
2022/08/14 08:43:29;;;;;;;11.60;10.70;;;25.70;99.50;;;;;;5086776;27;20452;-45
2022/08/14 08:46:01;;;;;;;11.50;10.40;;;25.80;99.90;;;;;;5083065;28;20461;-46
2022/08/14 08:48:29;;;;;;;11.80;10.80;;;25.90;99.90;;;;;;5086600;28;20511;-45
2022/08/14 08:51:01;;;;;;;12.20;11.10;;;25.90;99.90;;;;;;5087415;28;20530;-44
2022/08/14 08:53:32;;;;;;;11.10;10.20;;;25.90;99.90;;;;;;5084680;27;20464;-48
2022/08/14 08:55:59;;;;;;;12.17;11.20;;;25.90;99.90;;;;;;5087597;28;21050;-46
2022/08/14 08:58:25;;;;;;;11.60;10.70;;;26.00;99.90;;;;;;5082788;28;20462;-46
2022/08/14 09:00:55;;;;;;;11.33;10.43;;;26.00;99.50;;;;;;5083067;28;20498;-46
2022/08/14 09:03:24;;;;;;;11.10;10.20;;;26.00;99.90;;;;;;5087160;28;20438;-45
2022/08/14 09:06:00;;;;;;;10.90;10.03;;;26.10;99.80;;;;;;5090767;28;20472;-44
2022/08/14 09:08:31;;;;;;;11.80;10.90;;;26.20;99.50;;;;;;5089965;28;20446;-47
2022/08/14 09:10:58;;;;;;;11.77;10.77;;;26.30;99.90;;;;;;5086000;28;20450;-45
2022/08/14 09:13:25;;;;;;;11.07;10.23;;;26.30;99.90;;;;;;5090885;28;20442;-45
2022/08/14 09:15:52;;;;;;;10.00;9.30;;;26.40;99.60;;;;;;5091020;28;20809;-46
2022/08/14 09:18:23;;;;;;;11.17;10.27;;;26.50;99.60;;;;;;5090125;28;20490;-44
2022/08/14 09:20:51;;;;;;;12.10;11.10;;;26.60;99.60;;;;;;5079480;28;20829;-46
2022/08/14 09:23:17;;;;;;;10.23;9.43;;;26.70;99.40;;;;;;5090733;28;20442;-46
2022/08/14 09:25:46;;;;;;;11.77;10.87;;;26.80;98.80;;;;;;5098261;28;20498;-44
2022/08/14 09:28:14;;;;;;;11.17;10.27;;;26.90;98.10;;;;;;5099852;28;20453;-45
2022/08/14 09:30:43;;;;;;;10.77;9.97;;;27.00;98.70;;;;;;5081399;28;20434;-46
2022/08/14 09:33:36;;;;;;;10.03;9.23;;;27.10;98.20;;;;;;5093015;28;20549;-45
2022/08/14 09:36:25;;;;;;;11.10;10.30;;;27.20;97.40;;;;;;5093575;28;21049;-46
2022/08/14 09:39:20;;;;;;;10.80;10.00;;;27.30;97.10;;;;;;5087886;28;20458;-45
2022/08/14 09:41:54;;;;;;;10.70;9.70;;;27.50;96.90;;;;;;5072252;28;20446;-47
2022/08/14 09:44:41;;;;;;;10.37;9.53;;;27.70;96.50;;;;;;5089651;28;20441;-48
2022/08/14 09:47:09;;;;;;;11.60;10.60;;;27.80;96.40;;;;;;5089311;28;20461;-47
2022/08/14 09:49:37;;;;;;;9.37;8.57;;;27.90;95.70;;;;;;5089830;28;20442;-45
2022/08/14 09:52:12;;;;;;;10.13;9.37;;;28.00;95.70;;;;;;5089656;28;20446;-47
2022/08/14 09:54:45;;;;;;;9.03;8.33;;;28.10;96.00;;;;;;5089383;28;20442;-44
2022/08/14 09:57:23;;;;;;;10.03;9.33;;;28.20;94.50;;;;;;5086172;28;20790;-44
2022/08/14 09:59:50;;;;;;;9.10;8.30;;;28.30;93.70;;;;;;5089580;28;20508;-47
2022/08/14 10:02:30;;;;;;;9.20;8.60;;;28.40;93.80;;;;;;5089468;28;20442;-45
2022/08/14 10:05:06;;;;;;;10.70;9.60;;;28.50;94.00;;;;;;5089572;28;20474;-47
2022/08/14 10:07:35;;;;;;;11.27;10.27;;;28.60;94.00;;;;;;5089376;28;20727;-44
2022/08/14 10:10:02;;;;;;;10.80;9.90;;;28.60;94.50;;;;;;5089736;28;20823;-45
2022/08/14 10:12:47;;;;;;;10.67;9.73;;;28.70;94.00;;;;;;5089485;28;20457;-46
2022/08/14 10:15:18;;;;;;;10.37;9.57;;;28.70;93.00;;;;;;5089600;27;20474;-44
2022/08/14 10:17:45;;;;;;;10.47;9.67;;;28.80;94.10;;;;;;5089657;28;20790;-44
2022/08/14 10:20:13;;;;;;;10.47;9.43;;;28.80;94.10;;;;;;5087792;27;20485;-45
2022/08/14 10:22:38;;;;;;;10.50;9.73;;;29.00;94.10;;;;;;5088755;28;20820;-45
2022/08/14 10:25:16;;;;;;;10.20;9.40;;;29.00;93.00;;;;;;5091176;28;20454;-43
2022/08/14 10:27:45;;;;;;;10.83;9.93;;;29.10;91.80;;;;;;5094613;28;20199;-45
2022/08/14 10:30:16;;;;;;;9.87;8.87;;;29.20;92.50;;;;;;5089388;28;20469;-44
2022/08/14 10:32:47;;;;;;;9.97;9.27;;;29.20;92.60;;;;;;5090078;28;20986;-45
2022/08/14 10:35:15;;;;;;;9.80;9.20;;;29.30;92.10;;;;;;5089334;27;20520;-46
2022/08/14 10:37:49;;;;;;;10.13;9.30;;;29.30;91.50;;;;;;5089008;28;20474;-44
2022/08/14 10:40:25;;;;;;;9.43;8.73;;;29.40;91.80;;;;;;5079190;28;20849;-43
2022/08/14 10:42:51;;;;;;;10.23;9.33;;;29.50;92.00;;;;;;5089616;28;20446;-46
2022/08/14 10:45:29;;;;;;;9.27;8.57;;;29.50;91.40;;;;;;5089371;27;20816;-47
2022/08/14 10:47:56;;;;;;;10.10;9.30;;;29.70;91.70;;;;;;5097293;28;20204;-45
2022/08/14 10:50:30;;;;;;;9.37;8.70;;;29.70;91.60;;;;;;5088618;28;20466;-44
2022/08/14 10:52:58;;;;;;;9.03;8.33;;;29.80;91.30;;;;;;5089160;28;20528;-43
2022/08/14 10:55:31;;;;;;;9.13;8.43;;;29.90;91.10;;;;;;5083095;28;20546;-43
2022/08/14 10:57:58;;;;;;;9.63;8.93;;;30.00;90.60;;;;;;5077670;28;20866;-47
2022/08/14 11:00:28;;;;;;;9.00;8.40;;;30.00;88.80;;;;;;5088735;28;20490;-48
2022/08/14 11:03:09;;;;;;;9.80;9.10;;;30.10;90.30;;;;;;5089008;28;20450;-44
2022/08/14 11:05:43;;;;;;;9.93;9.20;;;30.10;89.00;;;;;;5099740;27;20480;-46
2022/08/14 11:08:12;;;;;;;8.90;8.30;;;30.10;88.30;;;;;;5088287;28;20458;-44
2022/08/14 11:10:56;;;;;;;10.53;9.70;;;30.20;86.80;;;;;;5096945;27;20463;-44
2022/08/14 11:13:24;;;;;;;9.43;8.73;;;30.10;86.20;;;;;;5088322;28;20443;-46
2022/08/14 11:15:51;;;;;;;9.70;8.80;;;30.10;88.40;;;;;;5079243;28;20458;-46
2022/08/14 11:18:18;;;;;;;9.43;8.73;;;30.10;90.10;;;;;;5088036;28;20537;-47
2022/08/14 11:20:48;;;;;;;8.60;8.00;;;30.10;86.30;;;;;;5087967;27;20490;-47
2022/08/14 11:23:14;;;;;;;9.60;8.87;;;30.20;88.20;;;;;;5088583;28;20460;-47
2022/08/14 11:25:44;;;;;;;9.80;9.10;;;30.30;88.90;;;;;;5090543;28;20450;-47
2022/08/14 11:28:15;;;;;;;10.00;9.20;;;30.40;84.70;;;;;;5087971;28;20482;-47
2022/08/14 11:30:46;;;;;;;9.77;9.07;;;30.50;82.60;;;;;;5088107;28;20561;-46
2022/08/14 11:33:12;;;;;;;9.50;8.70;;;30.40;82.40;;;;;;5088626;28;20446;-46
2022/08/14 11:35:38;;;;;;;10.00;9.10;;;30.40;81.30;;;;;;5086017;28;21035;-45
2022/08/14 11:38:07;;;;;;;8.87;8.27;;;30.40;82.50;;;;;;5087823;28;20200;-48
2022/08/14 11:40:35;;;;;;;8.97;8.30;;;30.50;83.90;;;;;;5087460;28;20492;-46
2022/08/14 11:43:04;;;;;;;10.00;9.20;;;30.60;85.90;;;;;;5088632;28;21242;-46
2022/08/14 11:45:33;;;;;;;9.27;8.67;;;30.60;85.20;;;;;;5087767;28;20523;-45
2022/08/14 11:48:19;;;;;;;9.63;8.90;;;30.70;85.50;;;;;;5087655;28;20501;-46
2022/08/14 11:50:46;;;;;;;9.40;8.53;;;30.80;80.30;;;;;;5087879;28;20561;-45
2022/08/14 11:53:29;;;;;;;9.47;8.87;;;30.70;80.50;;;;;;5087974;28;20458;-46
2022/08/14 11:56:01;;;;;;;9.13;8.43;;;30.60;82.10;;;;;;5082307;28;20459;-45
2022/08/14 11:58:35;;;;;;;10.00;9.30;;;30.60;81.80;;;;;;5087117;28;20494;-47
2022/08/14 12:01:05;;;;;;;9.50;8.80;;;30.60;83.10;;;;;;5084960;27;20461;-44
2022/08/14 12:04:16;;;;;;;9.53;8.83;;;30.60;83.90;;;;;;5087589;28;20537;-50
2022/08/14 12:06:51;;;;;;;9.87;9.17;;;30.60;84.60;;;;;;5071098;28;20645;-50
2022/08/14 12:09:34;;;;;;;10.17;9.37;;;30.60;84.70;;;;;;5086190;28;20967;-48
2022/08/14 12:12:12;;;;;;;9.30;8.60;;;30.70;80.50;;;;;;5087444;28;20445;-48
2022/08/14 12:14:47;;;;;;;9.80;9.10;;;30.70;81.20;;;;;;5087370;27;20481;-47
2022/08/14 12:17:13;;;;;;;8.70;8.00;;;30.70;82.10;;;;;;5084246;28;20569;-46
2022/08/14 12:19:49;;;;;;;9.30;8.67;;;30.70;80.00;;;;;;5096390;27;20481;-46
2022/08/14 12:22:14;;;;;;;9.60;8.70;;;30.50;78.40;;;;;;5087471;28;20457;-44
2022/08/14 12:24:49;;;;;;;9.33;8.53;;;30.30;78.80;;;;;;5086887;28;20452;-46
2022/08/14 12:27:15;;;;;;;10.20;9.47;;;30.20;80.70;;;;;;5087277;28;20204;-46
2022/08/14 12:29:51;;;;;;;9.10;8.50;;;30.10;83.70;;;;;;5085738;28;20462;-48
2022/08/14 12:32:17;;;;;;;8.80;8.20;;;30.30;83.20;;;;;;5081289;28;20215;-46
2022/08/14 12:34:42;;;;;;;9.40;8.70;;;30.50;80.70;;;;;;5086641;28;20462;-47
2022/08/14 12:37:08;;;;;;;9.30;8.70;;;30.40;79.80;;;;;;5086963;28;20484;-45
2022/08/14 12:39:35;;;;;;;10.20;9.40;;;30.40;79.20;;;;;;5086009;28;20223;-48
2022/08/14 12:42:05;;;;;;;9.53;8.83;;;30.30;80.10;;;;;;5086747;28;20671;-45
2022/08/14 12:44:37;;;;;;;9.27;8.57;;;30.20;80.40;;;;;;5086309;28;20996;-45
2022/08/14 12:47:04;;;;;;;9.30;8.70;;;30.10;82.00;;;;;;5083148;28;20442;-49
2022/08/14 12:49:30;;;;;;;9.90;9.00;;;30.10;83.40;;;;;;5087070;27;20437;-48
2022/08/14 12:51:58;;;;;;;9.97;9.20;;;30.20;83.30;;;;;;5094940;28;20441;-46
2022/08/14 12:54:24;;;;;;;9.87;9.07;;;30.40;83.90;;;;;;5086788;28;20258;-50
2022/08/14 12:56:49;;;;;;;10.03;9.23;;;30.60;81.20;;;;;;5081189;28;20532;-46